sensor_id;sensor_type;location;lat;lon;timestamp;temperature;humidity
19561;DHT22;9927;47.792;10.616;2023-08-24T00:02:03;20.90;99.90
19561;DHT22;9927;47.792;10.616;2023-08-24T00:04:31;20.90;99.90
19561;DHT22;9927;47.792;10.616;2023-08-24T00:06:58;20.90;99.90
19561;DHT22;9927;47.792;10.616;2023-08-24T00:09:26;20.90;99.90
19561;DHT22;9927;47.792;10.616;2023-08-24T00:11:53;20.90;99.90
19561;DHT22;9927;47.792;10.616;2023-08-24T00:14:21;20.80;99.90
19561;DHT22;9927;47.792;10.616;2023-08-24T00:16:48;20.80;99.90
19561;DHT22;9927;47.792;10.616;2023-08-24T00:19:16;20.70;99.90
19561;DHT22;9927;47.792;10.616;2023-08-24T00:21:43;20.60;99.90
19561;DHT22;9927;47.792;10.616;2023-08-24T00:24:10;20.70;99.90
19561;DHT22;9927;47.792;10.616;2023-08-24T00:26:38;20.70;99.90
19561;DHT22;9927;47.792;10.616;2023-08-24T00:29:05;20.70;99.90
19561;DHT22;9927;47.792;10.616;2023-08-24T00:31:32;20.60;99.90
19561;DHT22;9927;47.792;10.616;2023-08-24T00:33:59;20.60;99.90
19561;DHT22;9927;47.792;10.616;2023-08-24T00:36:26;20.60;99.90
19561;DHT22;9927;47.792;10.616;2023-08-24T00:38:56;20.60;99.90
19561;DHT22;9927;47.792;10.616;2023-08-24T00:41:24;20.60;99.90
19561;DHT22;9927;47.792;10.616;2023-08-24T00:43:52;20.60;99.90
19561;DHT22;9927;47.792;10.616;2023-08-24T00:46:20;20.50;99.90
19561;DHT22;9927;47.792;10.616;2023-08-24T00:48:49;20.50;99.90
19561;DHT22;9927;47.792;10.616;2023-08-24T00:51:18;20.50;99.90
19561;DHT22;9927;47.792;10.616;2023-08-24T00:53:46;20.50;99.90
19561;DHT22;9927;47.792;10.616;2023-08-24T00:56:13;20.50;99.90
19561;DHT22;9927;47.792;10.616;2023-08-24T00:58:40;20.50;99.90
19561;DHT22;9927;47.792;10.616;2023-08-24T01:01:08;20.50;99.90
19561;DHT22;9927;47.792;10.616;2023-08-24T01:03:36;20.50;99.90
19561;DHT22;9927;47.792;10.616;2023-08-24T01:06:03;20.40;99.90
19561;DHT22;9927;47.792;10.616;2023-08-24T01:08:30;20.50;99.90
19561;DHT22;9927;47.792;10.616;2023-08-24T01:11:04;20.40;99.90
19561;DHT22;9927;47.792;10.616;2023-08-24T01:16:34;20.20;99.90
19561;DHT22;9927;47.792;10.616;2023-08-24T01:19:12;20.10;99.90
19561;DHT22;9927;47.792;10.616;2023-08-24T01:21:44;20.10;99.90
19561;DHT22;9927;47.792;10.616;2023-08-24T01:24:21;20.10;99.90
19561;DHT22;9927;47.792;10.616;2023-08-24T01:26:55;20.00;99.90
19561;DHT22;9927;47.792;10.616;2023-08-24T01:29:22;20.00;99.90
19561;DHT22;9927;47.792;10.616;2023-08-24T01:31:50;20.00;99.90
19561;DHT22;9927;47.792;10.616;2023-08-24T01:34:18;19.80;99.90
19561;DHT22;9927;47.792;10.616;2023-08-24T01:36:45;19.70;99.90
19561;DHT22;9927;47.792;10.616;2023-08-24T01:41:49;19.70;99.90
19561;DHT22;9927;47.792;10.616;2023-08-24T01:44:21;19.70;99.90
19561;DHT22;9927;47.792;10.616;2023-08-24T01:46:51;19.70;99.90
19561;DHT22;9927;47.792;10.616;2023-08-24T01:49:21;19.80;99.90
19561;DHT22;9927;47.792;10.616;2023-08-24T01:51:50;19.80;99.90
19561;DHT22;9927;47.792;10.616;2023-08-24T01:54:18;19.70;99.90
19561;DHT22;9927;47.792;10.616;2023-08-24T01:56:46;19.70;99.90
19561;DHT22;9927;47.792;10.616;2023-08-24T01:59:13;19.70;99.90
19561;DHT22;9927;47.792;10.616;2023-08-24T02:01:40;19.60;99.90
19561;DHT22;9927;47.792;10.616;2023-08-24T02:04:07;19.60;99.90
19561;DHT22;9927;47.792;10.616;2023-08-24T02:06:35;19.60;99.90
19561;DHT22;9927;47.792;10.616;2023-08-24T02:09:02;19.60;99.90
19561;DHT22;9927;47.792;10.616;2023-08-24T02:11:29;19.60;99.90
19561;DHT22;9927;47.792;10.616;2023-08-24T02:13:57;19.60;99.90
19561;DHT22;9927;47.792;10.616;2023-08-24T02:16:24;19.50;99.90
19561;DHT22;9927;47.792;10.616;2023-08-24T02:18:51;19.40;99.90
19561;DHT22;9927;47.792;10.616;2023-08-24T02:21:19;19.40;99.90
19561;DHT22;9927;47.792;10.616;2023-08-24T02:23:46;19.40;99.90
19561;DHT22;9927;47.792;10.616;2023-08-24T02:26:13;19.40;99.90
19561;DHT22;9927;47.792;10.616;2023-08-24T02:28:40;19.30;99.90
19561;DHT22;9927;47.792;10.616;2023-08-24T02:31:07;19.20;99.90
19561;DHT22;9927;47.792;10.616;2023-08-24T02:33:36;19.20;99.90
19561;DHT22;9927;47.792;10.616;2023-08-24T02:36:03;19.20;99.90
19561;DHT22;9927;47.792;10.616;2023-08-24T02:38:31;19.30;99.90
19561;DHT22;9927;47.792;10.616;2023-08-24T02:41:05;19.20;99.90
19561;DHT22;9927;47.792;10.616;2023-08-24T02:43:33;19.10;99.90
19561;DHT22;9927;47.792;10.616;2023-08-24T02:46:02;19.10;99.90
19561;DHT22;9927;47.792;10.616;2023-08-24T02:48:31;19.00;99.90
19561;DHT22;9927;47.792;10.616;2023-08-24T02:51:00;19.00;99.90
19561;DHT22;9927;47.792;10.616;2023-08-24T02:53:27;19.00;99.90
19561;DHT22;9927;47.792;10.616;2023-08-24T02:55:55;19.00;99.90
19561;DHT22;9927;47.792;10.616;2023-08-24T02:58:23;19.10;99.90
19561;DHT22;9927;47.792;10.616;2023-08-24T03:00:50;19.10;99.90
19561;DHT22;9927;47.792;10.616;2023-08-24T03:03:17;19.10;99.90
19561;DHT22;9927;47.792;10.616;2023-08-24T03:06:02;19.10;99.90
19561;DHT22;9927;47.792;10.616;2023-08-24T03:08:30;19.10;99.90
19561;DHT22;9927;47.792;10.616;2023-08-24T03:10:59;19.00;99.90
19561;DHT22;9927;47.792;10.616;2023-08-24T03:13:27;19.00;99.90
19561;DHT22;9927;47.792;10.616;2023-08-24T03:15:55;18.90;99.90
19561;DHT22;9927;47.792;10.616;2023-08-24T03:18:23;18.80;99.90
19561;DHT22;9927;47.792;10.616;2023-08-24T03:20:50;18.80;99.90
19561;DHT22;9927;47.792;10.616;2023-08-24T03:23:17;18.80;99.90
19561;DHT22;9927;47.792;10.616;2023-08-24T03:25:45;18.70;99.90
19561;DHT22;9927;47.792;10.616;2023-08-24T03:28:12;18.70;99.90
19561;DHT22;9927;47.792;10.616;2023-08-24T03:30:46;18.80;99.90
19561;DHT22;9927;47.792;10.616;2023-08-24T03:33:15;18.80;99.90
19561;DHT22;9927;47.792;10.616;2023-08-24T03:35:42;18.80;99.90
19561;DHT22;9927;47.792;10.616;2023-08-24T03:38:10;18.70;99.90
19561;DHT22;9927;47.792;10.616;2023-08-24T03:40:37;18.70;99.90
19561;DHT22;9927;47.792;10.616;2023-08-24T03:43:04;18.60;99.90
19561;DHT22;9927;47.792;10.616;2023-08-24T03:45:31;18.60;99.90
19561;DHT22;9927;47.792;10.616;2023-08-24T03:47:59;18.60;99.90
19561;DHT22;9927;47.792;10.616;2023-08-24T03:50:26;18.60;99.90
19561;DHT22;9927;47.792;10.616;2023-08-24T03:52:54;18.50;99.90
19561;DHT22;9927;47.792;10.616;2023-08-24T03:55:21;18.60;99.90
19561;DHT22;9927;47.792;10.616;2023-08-24T03:57:49;18.60;99.90
19561;DHT22;9927;47.792;10.616;2023-08-24T04:00:16;18.60;99.90
19561;DHT22;9927;47.792;10.616;2023-08-24T04:02:44;18.60;99.90
19561;DHT22;9927;47.792;10.616;2023-08-24T04:05:12;18.60;99.90
19561;DHT22;9927;47.792;10.616;2023-08-24T04:07:39;18.60;99.90
19561;DHT22;9927;47.792;10.616;2023-08-24T04:10:08;18.60;99.90
19561;DHT22;9927;47.792;10.616;2023-08-24T04:12:36;18.50;99.90
19561;DHT22;9927;47.792;10.616;2023-08-24T04:15:04;18.50;99.90
19561;DHT22;9927;47.792;10.616;2023-08-24T04:17:32;18.50;99.90
19561;DHT22;9927;47.792;10.616;2023-08-24T04:19:59;18.50;99.90
19561;DHT22;9927;47.792;10.616;2023-08-24T04:22:26;18.50;99.90
19561;DHT22;9927;47.792;10.616;2023-08-24T04:24:53;18.50;99.90
19561;DHT22;9927;47.792;10.616;2023-08-24T04:27:20;18.50;99.90
19561;DHT22;9927;47.792;10.616;2023-08-24T04:29:49;18.50;99.90
19561;DHT22;9927;47.792;10.616;2023-08-24T04:32:16;18.40;99.90
19561;DHT22;9927;47.792;10.616;2023-08-24T04:34:43;18.30;99.90
19561;DHT22;9927;47.792;10.616;2023-08-24T04:37:11;18.20;99.90
19561;DHT22;9927;47.792;10.616;2023-08-24T04:39:38;18.20;99.90
19561;DHT22;9927;47.792;10.616;2023-08-24T04:42:06;18.30;99.90
19561;DHT22;9927;47.792;10.616;2023-08-24T04:44:33;18.40;99.90
19561;DHT22;9927;47.792;10.616;2023-08-24T04:47:00;18.40;99.90
19561;DHT22;9927;47.792;10.616;2023-08-24T04:49:30;18.40;99.90
19561;DHT22;9927;47.792;10.616;2023-08-24T04:51:57;18.40;99.90
19561;DHT22;9927;47.792;10.616;2023-08-24T04:54:24;18.40;99.90
19561;DHT22;9927;47.792;10.616;2023-08-24T04:56:52;18.30;99.90
19561;DHT22;9927;47.792;10.616;2023-08-24T04:59:19;18.30;99.90
19561;DHT22;9927;47.792;10.616;2023-08-24T05:01:46;18.30;99.90
19561;DHT22;9927;47.792;10.616;2023-08-24T05:04:13;18.40;99.90
19561;DHT22;9927;47.792;10.616;2023-08-24T05:06:41;18.40;99.90
19561;DHT22;9927;47.792;10.616;2023-08-24T05:09:08;18.50;99.90
19561;DHT22;9927;47.792;10.616;2023-08-24T05:11:35;18.50;99.90
19561;DHT22;9927;47.792;10.616;2023-08-24T05:14:02;18.60;99.90
19561;DHT22;9927;47.792;10.616;2023-08-24T05:16:30;18.70;99.90
19561;DHT22;9927;47.792;10.616;2023-08-24T05:18:58;18.70;99.90
19561;DHT22;9927;47.792;10.616;2023-08-24T05:21:25;18.70;99.90
19561;DHT22;9927;47.792;10.616;2023-08-24T05:23:52;18.80;99.90
19561;DHT22;9927;47.792;10.616;2023-08-24T05:26:19;19.00;99.90
19561;DHT22;9927;47.792;10.616;2023-08-24T05:28:49;19.10;99.90
19561;DHT22;9927;47.792;10.616;2023-08-24T05:31:17;19.00;99.90
19561;DHT22;9927;47.792;10.616;2023-08-24T05:33:47;19.10;99.90
19561;DHT22;9927;47.792;10.616;2023-08-24T05:36:15;19.10;99.90
19561;DHT22;9927;47.792;10.616;2023-08-24T05:38:42;19.60;99.90
19561;DHT22;9927;47.792;10.616;2023-08-24T05:41:31;19.70;99.90
19561;DHT22;9927;47.792;10.616;2023-08-24T05:43:58;20.00;99.90
19561;DHT22;9927;47.792;10.616;2023-08-24T05:46:26;20.10;99.90
19561;DHT22;9927;47.792;10.616;2023-08-24T05:48:53;20.50;99.90
19561;DHT22;9927;47.792;10.616;2023-08-24T05:51:20;20.70;99.90
19561;DHT22;9927;47.792;10.616;2023-08-24T05:53:48;20.90;99.90
19561;DHT22;9927;47.792;10.616;2023-08-24T05:56:15;20.90;99.90
19561;DHT22;9927;47.792;10.616;2023-08-24T05:58:42;21.10;99.90
19561;DHT22;9927;47.792;10.616;2023-08-24T06:01:09;21.30;99.90
19561;DHT22;9927;47.792;10.616;2023-08-24T06:03:37;21.70;99.90
19561;DHT22;9927;47.792;10.616;2023-08-24T06:06:04;22.10;99.90
19561;DHT22;9927;47.792;10.616;2023-08-24T06:08:32;22.80;99.90
19561;DHT22;9927;47.792;10.616;2023-08-24T06:10:59;22.90;99.90
19561;DHT22;9927;47.792;10.616;2023-08-24T06:13:26;23.20;99.90
19561;DHT22;9927;47.792;10.616;2023-08-24T06:15:54;23.90;99.90
19561;DHT22;9927;47.792;10.616;2023-08-24T06:18:21;24.60;99.90
19561;DHT22;9927;47.792;10.616;2023-08-24T06:20:49;24.60;99.90
19561;DHT22;9927;47.792;10.616;2023-08-24T06:23:17;24.90;99.90
19561;DHT22;9927;47.792;10.616;2023-08-24T06:25:45;25.50;99.90
19561;DHT22;9927;47.792;10.616;2023-08-24T06:28:13;25.70;99.90
19561;DHT22;9927;47.792;10.616;2023-08-24T06:30:41;25.70;99.90
19561;DHT22;9927;47.792;10.616;2023-08-24T06:33:10;25.30;99.90
19561;DHT22;9927;47.792;10.616;2023-08-24T06:35:40;25.80;99.90
19561;DHT22;9927;47.792;10.616;2023-08-24T06:38:08;26.60;99.90
19561;DHT22;9927;47.792;10.616;2023-08-24T06:40:35;26.80;99.90
19561;DHT22;9927;47.792;10.616;2023-08-24T06:43:02;26.90;99.90
19561;DHT22;9927;47.792;10.616;2023-08-24T06:45:31;26.40;99.90
19561;DHT22;9927;47.792;10.616;2023-08-24T06:47:58;25.90;99.90
19561;DHT22;9927;47.792;10.616;2023-08-24T06:50:26;25.70;99.90
19561;DHT22;9927;47.792;10.616;2023-08-24T06:52:53;25.30;99.90
19561;DHT22;9927;47.792;10.616;2023-08-24T06:55:20;25.40;99.90
19561;DHT22;9927;47.792;10.616;2023-08-24T06:57:48;25.20;99.90
19561;DHT22;9927;47.792;10.616;2023-08-24T07:00:18;25.30;99.90
19561;DHT22;9927;47.792;10.616;2023-08-24T07:02:50;25.70;99.90
19561;DHT22;9927;47.792;10.616;2023-08-24T07:05:17;26.20;99.90
19561;DHT22;9927;47.792;10.616;2023-08-24T07:07:49;27.10;99.90
19561;DHT22;9927;47.792;10.616;2023-08-24T07:10:17;27.30;99.90
19561;DHT22;9927;47.792;10.616;2023-08-24T07:12:45;27.50;99.90
19561;DHT22;9927;47.792;10.616;2023-08-24T07:15:13;27.80;99.90
19561;DHT22;9927;47.792;10.616;2023-08-24T07:17:40;28.60;99.90
19561;DHT22;9927;47.792;10.616;2023-08-24T07:20:08;28.80;99.90
19561;DHT22;9927;47.792;10.616;2023-08-24T07:22:36;28.70;99.90
19561;DHT22;9927;47.792;10.616;2023-08-24T07:25:04;28.90;99.90
19561;DHT22;9927;47.792;10.616;2023-08-24T07:27:33;30.10;99.90
19561;DHT22;9927;47.792;10.616;2023-08-24T07:30:04;30.20;99.90
19561;DHT22;9927;47.792;10.616;2023-08-24T07:32:55;31.00;99.90
19561;DHT22;9927;47.792;10.616;2023-08-24T07:35:23;31.30;99.90
19561;DHT22;9927;47.792;10.616;2023-08-24T07:37:53;31.90;97.50
19561;DHT22;9927;47.792;10.616;2023-08-24T07:40:21;31.90;99.30
19561;DHT22;9927;47.792;10.616;2023-08-24T07:42:50;31.90;98.50
19561;DHT22;9927;47.792;10.616;2023-08-24T07:45:20;32.00;98.10
19561;DHT22;9927;47.792;10.616;2023-08-24T07:47:47;32.50;96.80
19561;DHT22;9927;47.792;10.616;2023-08-24T07:50:16;33.00;95.00
19561;DHT22;9927;47.792;10.616;2023-08-24T07:52:43;33.00;97.20
19561;DHT22;9927;47.792;10.616;2023-08-24T07:55:10;33.60;94.90
19561;DHT22;9927;47.792;10.616;2023-08-24T07:57:38;33.70;95.00
19561;DHT22;9927;47.792;10.616;2023-08-24T08:00:06;33.80;94.60
19561;DHT22;9927;47.792;10.616;2023-08-24T08:02:36;33.90;93.10
19561;DHT22;9927;47.792;10.616;2023-08-24T08:05:05;34.10;91.70
19561;DHT22;9927;47.792;10.616;2023-08-24T08:07:34;34.20;90.40
19561;DHT22;9927;47.792;10.616;2023-08-24T08:10:03;34.30;92.10
19561;DHT22;9927;47.792;10.616;2023-08-24T08:12:31;34.60;91.00
19561;DHT22;9927;47.792;10.616;2023-08-24T08:14:59;35.20;90.80
19561;DHT22;9927;47.792;10.616;2023-08-24T08:17:27;36.10;87.20
19561;DHT22;9927;47.792;10.616;2023-08-24T08:19:55;36.30;87.30
19561;DHT22;9927;47.792;10.616;2023-08-24T08:22:23;36.80;85.10
19561;DHT22;9927;47.792;10.616;2023-08-24T08:24:51;36.90;83.80
19561;DHT22;9927;47.792;10.616;2023-08-24T08:27:18;36.60;77.40
19561;DHT22;9927;47.792;10.616;2023-08-24T08:29:45;36.60;78.30
19561;DHT22;9927;47.792;10.616;2023-08-24T08:32:12;36.70;80.70
19561;DHT22;9927;47.792;10.616;2023-08-24T08:34:40;37.00;79.20
19561;DHT22;9927;47.792;10.616;2023-08-24T08:37:07;36.90;77.80
19561;DHT22;9927;47.792;10.616;2023-08-24T08:39:34;37.40;77.20
19561;DHT22;9927;47.792;10.616;2023-08-24T08:42:01;37.50;76.70
19561;DHT22;9927;47.792;10.616;2023-08-24T08:44:32;37.50;75.20
19561;DHT22;9927;47.792;10.616;2023-08-24T08:47:00;36.70;77.30
19561;DHT22;9927;47.792;10.616;2023-08-24T08:49:30;36.30;77.00
19561;DHT22;9927;47.792;10.616;2023-08-24T08:51:58;35.60;79.40
19561;DHT22;9927;47.792;10.616;2023-08-24T08:54:25;35.20;82.40
19561;DHT22;9927;47.792;10.616;2023-08-24T08:56:53;35.60;82.50
19561;DHT22;9927;47.792;10.616;2023-08-24T08:59:21;35.30;81.50
19561;DHT22;9927;47.792;10.616;2023-08-24T09:01:49;34.80;82.10
19561;DHT22;9927;47.792;10.616;2023-08-24T09:04:18;34.20;84.70
19561;DHT22;9927;47.792;10.616;2023-08-24T09:06:45;33.30;85.70
19561;DHT22;9927;47.792;10.616;2023-08-24T09:09:14;32.70;90.80
19561;DHT22;9927;47.792;10.616;2023-08-24T09:11:42;32.90;90.80
19561;DHT22;9927;47.792;10.616;2023-08-24T09:14:14;32.40;90.40
19561;DHT22;9927;47.792;10.616;2023-08-24T09:16:41;32.00;90.90
19561;DHT22;9927;47.792;10.616;2023-08-24T09:19:11;31.50;93.90
19561;DHT22;9927;47.792;10.616;2023-08-24T09:21:39;31.30;93.90
19561;DHT22;9927;47.792;10.616;2023-08-24T09:24:08;31.30;94.20
19561;DHT22;9927;47.792;10.616;2023-08-24T09:26:38;31.40;95.00
19561;DHT22;9927;47.792;10.616;2023-08-24T09:29:15;31.70;95.30
19561;DHT22;9927;47.792;10.616;2023-08-24T09:31:43;31.80;94.80
19561;DHT22;9927;47.792;10.616;2023-08-24T09:34:13;31.90;93.80
19561;DHT22;9927;47.792;10.616;2023-08-24T09:36:41;32.10;94.10
19561;DHT22;9927;47.792;10.616;2023-08-24T09:39:10;32.20;92.80
19561;DHT22;9927;47.792;10.616;2023-08-24T09:41:43;32.50;93.50
19561;DHT22;9927;47.792;10.616;2023-08-24T09:44:11;32.50;92.00
19561;DHT22;9927;47.792;10.616;2023-08-24T09:46:42;32.40;92.20
19561;DHT22;9927;47.792;10.616;2023-08-24T09:49:10;32.20;89.70
19561;DHT22;9927;47.792;10.616;2023-08-24T09:51:40;32.30;89.30
19561;DHT22;9927;47.792;10.616;2023-08-24T09:54:09;32.50;88.30
19561;DHT22;9927;47.792;10.616;2023-08-24T09:56:38;32.50;86.20
19561;DHT22;9927;47.792;10.616;2023-08-24T09:59:16;32.50;84.40
19561;DHT22;9927;47.792;10.616;2023-08-24T10:01:46;32.60;87.20
19561;DHT22;9927;47.792;10.616;2023-08-24T10:04:17;32.50;84.00
19561;DHT22;9927;47.792;10.616;2023-08-24T10:06:52;32.50;84.60
19561;DHT22;9927;47.792;10.616;2023-08-24T10:09:27;32.30;82.00
19561;DHT22;9927;47.792;10.616;2023-08-24T10:12:00;32.30;85.20
19561;DHT22;9927;47.792;10.616;2023-08-24T10:14:35;32.10;84.00
19561;DHT22;9927;47.792;10.616;2023-08-24T10:17:08;32.10;85.90
19561;DHT22;9927;47.792;10.616;2023-08-24T10:19:41;32.20;83.30
19561;DHT22;9927;47.792;10.616;2023-08-24T10:22:10;32.30;80.80
19561;DHT22;9927;47.792;10.616;2023-08-24T10:24:38;32.30;83.40
19561;DHT22;9927;47.792;10.616;2023-08-24T10:27:09;32.30;80.70
19561;DHT22;9927;47.792;10.616;2023-08-24T10:29:36;32.30;83.60
19561;DHT22;9927;47.792;10.616;2023-08-24T10:32:04;32.30;82.30
19561;DHT22;9927;47.792;10.616;2023-08-24T10:34:32;32.20;81.00
19561;DHT22;9927;47.792;10.616;2023-08-24T10:37:09;32.10;81.80
19561;DHT22;9927;47.792;10.616;2023-08-24T10:39:45;32.20;84.70
19561;DHT22;9927;47.792;10.616;2023-08-24T10:42:14;32.30;82.00
19561;DHT22;9927;47.792;10.616;2023-08-24T10:44:45;32.40;78.30
19561;DHT22;9927;47.792;10.616;2023-08-24T10:47:22;32.50;77.20
19561;DHT22;9927;47.792;10.616;2023-08-24T10:52:31;32.50;73.80
19561;DHT22;9927;47.792;10.616;2023-08-24T10:55:04;32.30;72.00
19561;DHT22;9927;47.792;10.616;2023-08-24T10:57:38;32.10;70.50
19561;DHT22;9927;47.792;10.616;2023-08-24T11:00:07;32.10;72.40
19561;DHT22;9927;47.792;10.616;2023-08-24T11:02:46;32.30;72.80
19561;DHT22;9927;47.792;10.616;2023-08-24T11:05:23;32.30;70.20
19561;DHT22;9927;47.792;10.616;2023-08-24T11:08:01;32.50;71.60
19561;DHT22;9927;47.792;10.616;2023-08-24T11:13:12;32.50;72.80
19561;DHT22;9927;47.792;10.616;2023-08-24T11:18:24;32.70;73.90
19561;DHT22;9927;47.792;10.616;2023-08-24T11:20:55;32.70;72.40
19561;DHT22;9927;47.792;10.616;2023-08-24T11:23:24;32.90;74.00
19561;DHT22;9927;47.792;10.616;2023-08-24T11:25:53;33.00;71.50
19561;DHT22;9927;47.792;10.616;2023-08-24T11:28:24;33.00;68.60
19561;DHT22;9927;47.792;10.616;2023-08-24T11:30:53;32.90;70.30
19561;DHT22;9927;47.792;10.616;2023-08-24T11:33:28;32.80;70.50
19561;DHT22;9927;47.792;10.616;2023-08-24T11:35:57;33.00;70.30
19561;DHT22;9927;47.792;10.616;2023-08-24T11:38:24;33.00;66.70
19561;DHT22;9927;47.792;10.616;2023-08-24T11:40:52;33.00;68.80
19561;DHT22;9927;47.792;10.616;2023-08-24T11:43:25;33.00;67.30
19561;DHT22;9927;47.792;10.616;2023-08-24T11:45:54;33.00;67.20
19561;DHT22;9927;47.792;10.616;2023-08-24T11:48:27;32.90;66.00
19561;DHT22;9927;47.792;10.616;2023-08-24T11:50:57;32.80;66.10
19561;DHT22;9927;47.792;10.616;2023-08-24T11:53:26;32.80;66.80
19561;DHT22;9927;47.792;10.616;2023-08-24T11:55:53;33.00;67.60
19561;DHT22;9927;47.792;10.616;2023-08-24T11:58:31;33.00;68.10
19561;DHT22;9927;47.792;10.616;2023-08-24T12:00:59;33.00;67.00
19561;DHT22;9927;47.792;10.616;2023-08-24T12:03:27;33.00;68.40
19561;DHT22;9927;47.792;10.616;2023-08-24T12:05:59;33.20;66.60
19561;DHT22;9927;47.792;10.616;2023-08-24T12:08:26;33.20;65.70
19561;DHT22;9927;47.792;10.616;2023-08-24T12:10:54;33.20;67.70
19561;DHT22;9927;47.792;10.616;2023-08-24T12:13:22;33.20;71.00
19561;DHT22;9927;47.792;10.616;2023-08-24T12:15:49;33.50;68.60
19561;DHT22;9927;47.792;10.616;2023-08-24T12:18:18;33.60;66.50
19561;DHT22;9927;47.792;10.616;2023-08-24T12:20:47;33.60;68.00
19561;DHT22;9927;47.792;10.616;2023-08-24T12:23:14;33.70;67.80
19561;DHT22;9927;47.792;10.616;2023-08-24T12:25:45;33.80;66.80
19561;DHT22;9927;47.792;10.616;2023-08-24T12:28:14;33.90;64.70
19561;DHT22;9927;47.792;10.616;2023-08-24T12:30:44;33.90;66.80
19561;DHT22;9927;47.792;10.616;2023-08-24T12:33:31;33.90;66.50
19561;DHT22;9927;47.792;10.616;2023-08-24T12:35:58;33.80;64.30
19561;DHT22;9927;47.792;10.616;2023-08-24T12:38:26;33.80;61.10
19561;DHT22;9927;47.792;10.616;2023-08-24T12:40:54;33.80;64.80
19561;DHT22;9927;47.792;10.616;2023-08-24T12:43:21;33.90;66.60
19561;DHT22;9927;47.792;10.616;2023-08-24T12:45:49;34.00;65.40
19561;DHT22;9927;47.792;10.616;2023-08-24T12:48:16;34.10;68.80
19561;DHT22;9927;47.792;10.616;2023-08-24T12:50:43;34.30;66.30
19561;DHT22;9927;47.792;10.616;2023-08-24T12:53:11;34.30;67.40
19561;DHT22;9927;47.792;10.616;2023-08-24T12:55:39;34.30;64.10
19561;DHT22;9927;47.792;10.616;2023-08-24T12:58:07;34.30;66.80
19561;DHT22;9927;47.792;10.616;2023-08-24T13:00:34;34.30;67.10
19561;DHT22;9927;47.792;10.616;2023-08-24T13:03:01;34.40;63.90
19561;DHT22;9927;47.792;10.616;2023-08-24T13:05:29;34.40;63.00
19561;DHT22;9927;47.792;10.616;2023-08-24T13:07:58;34.60;64.30
19561;DHT22;9927;47.792;10.616;2023-08-24T13:10:25;34.60;64.60
19561;DHT22;9927;47.792;10.616;2023-08-24T13:12:53;34.60;65.20
19561;DHT22;9927;47.792;10.616;2023-08-24T13:15:20;34.60;66.70
19561;DHT22;9927;47.792;10.616;2023-08-24T13:17:47;34.60;66.30
19561;DHT22;9927;47.792;10.616;2023-08-24T13:20:16;34.60;65.60
19561;DHT22;9927;47.792;10.616;2023-08-24T13:22:43;34.50;65.20
19561;DHT22;9927;47.792;10.616;2023-08-24T13:25:10;34.30;65.40
19561;DHT22;9927;47.792;10.616;2023-08-24T13:27:37;34.00;63.70
19561;DHT22;9927;47.792;10.616;2023-08-24T13:30:05;34.00;64.40
19561;DHT22;9927;47.792;10.616;2023-08-24T13:32:33;34.10;65.30
19561;DHT22;9927;47.792;10.616;2023-08-24T13:35:04;34.30;67.10
19561;DHT22;9927;47.792;10.616;2023-08-24T13:37:35;34.40;63.50
19561;DHT22;9927;47.792;10.616;2023-08-24T13:40:02;34.40;65.40
19561;DHT22;9927;47.792;10.616;2023-08-24T13:42:30;34.50;65.10
19561;DHT22;9927;47.792;10.616;2023-08-24T13:44:58;34.60;65.30
19561;DHT22;9927;47.792;10.616;2023-08-24T13:47:25;34.90;66.80
19561;DHT22;9927;47.792;10.616;2023-08-24T13:49:52;34.90;67.70
19561;DHT22;9927;47.792;10.616;2023-08-24T13:52:20;35.00;67.50
19561;DHT22;9927;47.792;10.616;2023-08-24T13:54:47;35.10;62.60
19561;DHT22;9927;47.792;10.616;2023-08-24T13:57:33;35.10;64.20
19561;DHT22;9927;47.792;10.616;2023-08-24T14:00:01;35.20;64.80
19561;DHT22;9927;47.792;10.616;2023-08-24T14:02:33;35.20;64.60
19561;DHT22;9927;47.792;10.616;2023-08-24T14:05:01;35.30;65.70
19561;DHT22;9927;47.792;10.616;2023-08-24T14:07:28;35.00;63.00
19561;DHT22;9927;47.792;10.616;2023-08-24T14:09:55;35.00;63.30
19561;DHT22;9927;47.792;10.616;2023-08-24T14:12:32;35.00;64.30
19561;DHT22;9927;47.792;10.616;2023-08-24T14:15:01;35.00;66.70
19561;DHT22;9927;47.792;10.616;2023-08-24T14:17:28;35.10;65.00
19561;DHT22;9927;47.792;10.616;2023-08-24T14:19:56;35.10;65.90
19561;DHT22;9927;47.792;10.616;2023-08-24T14:22:25;35.10;65.00
19561;DHT22;9927;47.792;10.616;2023-08-24T14:24:52;35.10;65.90
19561;DHT22;9927;47.792;10.616;2023-08-24T14:27:20;35.10;64.60
19561;DHT22;9927;47.792;10.616;2023-08-24T14:29:50;35.10;65.20
19561;DHT22;9927;47.792;10.616;2023-08-24T14:32:18;35.20;65.80
19561;DHT22;9927;47.792;10.616;2023-08-24T14:34:46;35.10;65.50
19561;DHT22;9927;47.792;10.616;2023-08-24T14:37:13;35.00;64.70
19561;DHT22;9927;47.792;10.616;2023-08-24T14:39:40;35.10;63.00
19561;DHT22;9927;47.792;10.616;2023-08-24T14:42:07;35.20;64.30
19561;DHT22;9927;47.792;10.616;2023-08-24T14:44:35;35.40;64.10
19561;DHT22;9927;47.792;10.616;2023-08-24T14:47:02;35.40;64.60
19561;DHT22;9927;47.792;10.616;2023-08-24T14:49:30;35.40;65.20
19561;DHT22;9927;47.792;10.616;2023-08-24T14:51:57;35.30;67.10
19561;DHT22;9927;47.792;10.616;2023-08-24T14:56:56;35.40;64.90
19561;DHT22;9927;47.792;10.616;2023-08-24T14:59:24;35.30;66.50
19561;DHT22;9927;47.792;10.616;2023-08-24T15:01:51;35.30;67.30
19561;DHT22;9927;47.792;10.616;2023-08-24T15:04:23;35.40;66.60
19561;DHT22;9927;47.792;10.616;2023-08-24T15:06:51;35.10;62.10
19561;DHT22;9927;47.792;10.616;2023-08-24T15:09:19;35.10;61.10
19561;DHT22;9927;47.792;10.616;2023-08-24T15:11:49;35.10;62.70
19561;DHT22;9927;47.792;10.616;2023-08-24T15:14:16;35.10;61.40
19561;DHT22;9927;47.792;10.616;2023-08-24T15:16:44;35.10;62.20
19561;DHT22;9927;47.792;10.616;2023-08-24T15:21:41;35.10;58.10
19561;DHT22;9927;47.792;10.616;2023-08-24T15:24:08;34.90;60.50
19561;DHT22;9927;47.792;10.616;2023-08-24T15:26:35;34.80;60.30
19561;DHT22;9927;47.792;10.616;2023-08-24T15:29:12;34.80;57.00
19561;DHT22;9927;47.792;10.616;2023-08-24T15:31:42;34.80;59.10
19561;DHT22;9927;47.792;10.616;2023-08-24T15:34:10;34.80;59.60
19561;DHT22;9927;47.792;10.616;2023-08-24T15:36:37;34.70;58.80
19561;DHT22;9927;47.792;10.616;2023-08-24T15:39:05;34.50;58.30
19561;DHT22;9927;47.792;10.616;2023-08-24T15:41:33;34.40;59.80
19561;DHT22;9927;47.792;10.616;2023-08-24T15:44:00;34.20;59.40
19561;DHT22;9927;47.792;10.616;2023-08-24T15:46:27;34.00;59.30
19561;DHT22;9927;47.792;10.616;2023-08-24T15:48:54;33.80;59.30
19561;DHT22;9927;47.792;10.616;2023-08-24T15:51:23;33.70;60.90
19561;DHT22;9927;47.792;10.616;2023-08-24T15:53:50;33.70;62.10
19561;DHT22;9927;47.792;10.616;2023-08-24T15:56:17;33.60;61.10
19561;DHT22;9927;47.792;10.616;2023-08-24T15:58:45;33.40;60.20